sensor_id;sensor_type;location;lat;lon;timestamp;P1;durP1;ratioP1;P2;durP2;ratioP2
35959;SDS011;22043;50.970;7.192;2024-03-23T00:53:59;18.05;;;6.13;;
35959;SDS011;22043;50.970;7.192;2024-03-23T00:56:25;15.60;;;5.93;;
35959;SDS011;22043;50.970;7.192;2024-03-23T00:58:50;19.60;;;6.07;;
35959;SDS011;22043;50.970;7.192;2024-03-23T01:01:15;21.20;;;6.90;;
35959;SDS011;22043;50.970;7.192;2024-03-23T01:03:41;21.38;;;6.90;;
35959;SDS011;22043;50.970;7.192;2024-03-23T01:06:06;14.68;;;5.47;;
35959;SDS011;22043;50.970;7.192;2024-03-23T01:08:32;14.20;;;6.25;;
35959;SDS011;22043;50.970;7.192;2024-03-23T01:10:58;13.88;;;6.00;;
35959;SDS011;22043;50.970;7.192;2024-03-23T01:13:24;18.15;;;5.97;;
35959;SDS011;22043;50.970;7.192;2024-03-23T01:15:50;12.57;;;5.70;;
35959;SDS011;22043;50.970;7.192;2024-03-23T01:18:17;13.30;;;5.72;;
35959;SDS011;22043;50.970;7.192;2024-03-23T01:20:43;15.55;;;6.10;;
35959;SDS011;22043;50.970;7.192;2024-03-23T01:23:08;17.05;;;6.63;;
35959;SDS011;22043;50.970;7.192;2024-03-23T01:25:34;17.52;;;5.95;;
35959;SDS011;22043;50.970;7.192;2024-03-23T01:27:59;14.55;;;4.97;;
35959;SDS011;22043;50.970;7.192;2024-03-23T01:30:24;14.85;;;5.40;;
35959;SDS011;22043;50.970;7.192;2024-03-23T01:32:50;17.05;;;5.68;;
35959;SDS011;22043;50.970;7.192;2024-03-23T01:35:15;14.45;;;5.30;;
35959;SDS011;22043;50.970;7.192;2024-03-23T01:37:41;10.20;;;4.82;;
35959;SDS011;22043;50.970;7.192;2024-03-23T01:40:06;12.68;;;5.03;;
35959;SDS011;22043;50.970;7.192;2024-03-23T01:42:32;10.90;;;4.70;;
35959;SDS011;22043;50.970;7.192;2024-03-23T01:44:57;11.82;;;4.55;;
35959;SDS011;22043;50.970;7.192;2024-03-23T01:47:23;16.95;;;5.30;;
35959;SDS011;22043;50.970;7.192;2024-03-23T01:49:48;11.75;;;4.75;;
35959;SDS011;22043;50.970;7.192;2024-03-23T01:52:14;10.27;;;4.35;;
35959;SDS011;22043;50.970;7.192;2024-03-23T01:54:39;11.60;;;5.60;;
35959;SDS011;22043;50.970;7.192;2024-03-23T01:57:05;14.75;;;5.53;;
35959;SDS011;22043;50.970;7.192;2024-03-23T01:59:31;18.85;;;6.70;;
35959;SDS011;22043;50.970;7.192;2024-03-23T02:01:56;18.17;;;6.30;;
35959;SDS011;22043;50.970;7.192;2024-03-23T02:04:22;10.68;;;5.50;;
35959;SDS011;22043;50.970;7.192;2024-03-23T02:06:48;11.55;;;4.78;;
35959;SDS011;22043;50.970;7.192;2024-03-23T02:09:13;13.30;;;5.35;;
35959;SDS011;22043;50.970;7.192;2024-03-23T02:11:40;11.32;;;5.30;;
35959;SDS011;22043;50.970;7.192;2024-03-23T02:14:05;12.10;;;5.28;;
35959;SDS011;22043;50.970;7.192;2024-03-23T02:16:32;17.00;;;6.05;;
35959;SDS011;22043;50.970;7.192;2024-03-23T02:18:58;10.85;;;4.32;;
35959;SDS011;22043;50.970;7.192;2024-03-23T02:21:23;12.60;;;4.80;;
35959;SDS011;22043;50.970;7.192;2024-03-23T02:23:49;13.00;;;4.05;;
35959;SDS011;22043;50.970;7.192;2024-03-23T02:26:14;8.95;;;2.58;;
35959;SDS011;22043;50.970;7.192;2024-03-23T02:28:42;8.95;;;2.13;;
35959;SDS011;22043;50.970;7.192;2024-03-23T02:31:08;4.20;;;1.83;;
35959;SDS011;22043;50.970;7.192;2024-03-23T02:33:33;7.13;;;2.05;;
35959;SDS011;22043;50.970;7.192;2024-03-23T02:36:03;8.45;;;1.90;;
35959;SDS011;22043;50.970;7.192;2024-03-23T02:38:29;6.13;;;2.33;;
35959;SDS011;22043;50.970;7.192;2024-03-23T02:40:54;7.05;;;1.70;;
35959;SDS011;22043;50.970;7.192;2024-03-23T02:43:20;8.13;;;2.22;;
35959;SDS011;22043;50.970;7.192;2024-03-23T02:45:45;7.28;;;1.90;;
35959;SDS011;22043;50.970;7.192;2024-03-23T02:48:11;11.55;;;2.95;;
35959;SDS011;22043;50.970;7.192;2024-03-23T02:50:36;12.13;;;2.47;;
35959;SDS011;22043;50.970;7.192;2024-03-23T02:53:01;5.50;;;2.20;;
35959;SDS011;22043;50.970;7.192;2024-03-23T02:55:27;8.75;;;1.80;;
35959;SDS011;22043;50.970;7.192;2024-03-23T02:57:52;8.73;;;1.98;;
35959;SDS011;22043;50.970;7.192;2024-03-23T03:00:18;8.27;;;1.88;;
35959;SDS011;22043;50.970;7.192;2024-03-23T03:02:43;7.72;;;2.17;;
35959;SDS011;22043;50.970;7.192;2024-03-23T03:05:09;7.35;;;1.92;;
35959;SDS011;22043;50.970;7.192;2024-03-23T03:07:34;9.77;;;2.13;;
35959;SDS011;22043;50.970;7.192;2024-03-23T03:09:59;6.72;;;1.63;;
35959;SDS011;22043;50.970;7.192;2024-03-23T03:12:25;8.88;;;1.80;;
35959;SDS011;22043;50.970;7.192;2024-03-23T03:14:50;8.00;;;1.65;;
35959;SDS011;22043;50.970;7.192;2024-03-23T03:17:16;5.00;;;1.00;;
35959;SDS011;22043;50.970;7.192;2024-03-23T03:19:41;7.82;;;1.63;;
35959;SDS011;22043;50.970;7.192;2024-03-23T03:22:07;5.75;;;1.17;;
35959;SDS011;22043;50.970;7.192;2024-03-23T03:24:32;5.97;;;1.33;;
35959;SDS011;22043;50.970;7.192;2024-03-23T03:26:58;5.38;;;1.42;;
35959;SDS011;22043;50.970;7.192;2024-03-23T03:29:23;7.03;;;1.20;;
35959;SDS011;22043;50.970;7.192;2024-03-23T03:31:48;7.57;;;0.90;;
35959;SDS011;22043;50.970;7.192;2024-03-23T03:34:15;6.22;;;2.58;;
35959;SDS011;22043;50.970;7.192;2024-03-23T03:36:40;6.18;;;1.92;;
35959;SDS011;22043;50.970;7.192;2024-03-23T03:39:06;9.73;;;1.63;;
35959;SDS011;22043;50.970;7.192;2024-03-23T03:41:32;7.97;;;1.48;;
35959;SDS011;22043;50.970;7.192;2024-03-23T03:43:57;4.95;;;1.75;;
35959;SDS011;22043;50.970;7.192;2024-03-23T03:46:27;12.38;;;1.48;;
35959;SDS011;22043;50.970;7.192;2024-03-23T03:48:54;9.02;;;1.60;;
35959;SDS011;22043;50.970;7.192;2024-03-23T03:51:19;8.85;;;1.85;;
35959;SDS011;22043;50.970;7.192;2024-03-23T03:53:45;16.95;;;2.45;;
35959;SDS011;22043;50.970;7.192;2024-03-23T03:56:10;4.55;;;1.60;;
35959;SDS011;22043;50.970;7.192;2024-03-23T03:58:36;8.00;;;1.88;;
35959;SDS011;22043;50.970;7.192;2024-03-23T04:01:01;9.77;;;1.90;;
35959;SDS011;22043;50.970;7.192;2024-03-23T04:03:26;8.23;;;1.40;;
35959;SDS011;22043;50.970;7.192;2024-03-23T04:05:52;7.18;;;1.35;;
35959;SDS011;22043;50.970;7.192;2024-03-23T04:08:18;5.78;;;1.98;;
35959;SDS011;22043;50.970;7.192;2024-03-23T04:10:44;7.80;;;1.73;;
35959;SDS011;22043;50.970;7.192;2024-03-23T04:13:10;8.63;;;1.15;;
35959;SDS011;22043;50.970;7.192;2024-03-23T04:15:36;10.25;;;1.80;;
35959;SDS011;22043;50.970;7.192;2024-03-23T04:18:02;10.00;;;1.77;;
35959;SDS011;22043;50.970;7.192;2024-03-23T04:20:27;6.75;;;1.63;;
35959;SDS011;22043;50.970;7.192;2024-03-23T04:22:53;6.72;;;1.45;;
35959;SDS011;22043;50.970;7.192;2024-03-23T04:25:19;13.93;;;1.52;;
35959;SDS011;22043;50.970;7.192;2024-03-23T04:27:44;7.90;;;1.25;;
35959;SDS011;22043;50.970;7.192;2024-03-23T04:30:11;7.50;;;1.58;;
35959;SDS011;22043;50.970;7.192;2024-03-23T04:32:37;8.80;;;1.80;;
35959;SDS011;22043;50.970;7.192;2024-03-23T04:35:03;13.82;;;2.45;;
35959;SDS011;22043;50.970;7.192;2024-03-23T04:37:35;7.55;;;1.80;;
35959;SDS011;22043;50.970;7.192;2024-03-23T04:40:01;9.55;;;2.08;;
35959;SDS011;22043;50.970;7.192;2024-03-23T04:42:28;11.93;;;1.60;;
35959;SDS011;22043;50.970;7.192;2024-03-23T04:44:53;10.70;;;2.35;;
35959;SDS011;22043;50.970;7.192;2024-03-23T04:47:19;5.32;;;2.20;;
35959;SDS011;22043;50.970;7.192;2024-03-23T04:49:44;9.75;;;2.65;;
35959;SDS011;22043;50.970;7.192;2024-03-23T04:52:10;9.90;;;2.45;;
35959;SDS011;22043;50.970;7.192;2024-03-23T04:54:35;9.82;;;2.85;;
35959;SDS011;22043;50.970;7.192;2024-03-23T04:57:01;7.25;;;2.45;;
35959;SDS011;22043;50.970;7.192;2024-03-23T04:59:26;12.43;;;2.63;;
35959;SDS011;22043;50.970;7.192;2024-03-23T05:01:51;9.65;;;2.92;;
35959;SDS011;22043;50.970;7.192;2024-03-23T05:04:17;11.10;;;2.70;;
35959;SDS011;22043;50.970;7.192;2024-03-23T05:06:42;11.55;;;3.05;;
35959;SDS011;22043;50.970;7.192;2024-03-23T05:09:08;13.27;;;4.00;;
35959;SDS011;22043;50.970;7.192;2024-03-23T05:11:40;14.38;;;3.55;;
35959;SDS011;22043;50.970;7.192;2024-03-23T05:14:06;11.45;;;2.95;;
35959;SDS011;22043;50.970;7.192;2024-03-23T05:16:32;8.63;;;2.40;;
35959;SDS011;22043;50.970;7.192;2024-03-23T05:18:57;11.13;;;3.05;;
35959;SDS011;22043;50.970;7.192;2024-03-23T05:21:23;12.27;;;3.38;;
35959;SDS011;22043;50.970;7.192;2024-03-23T05:23:48;14.00;;;3.38;;
35959;SDS011;22043;50.970;7.192;2024-03-23T05:26:14;12.65;;;3.97;;
35959;SDS011;22043;50.970;7.192;2024-03-23T05:28:39;13.38;;;2.88;;
35959;SDS011;22043;50.970;7.192;2024-03-23T05:31:05;13.95;;;3.53;;
35959;SDS011;22043;50.970;7.192;2024-03-23T05:33:31;17.00;;;3.58;;
35959;SDS011;22043;50.970;7.192;2024-03-23T05:35:57;13.68;;;3.38;;
35959;SDS011;22043;50.970;7.192;2024-03-23T05:38:23;10.88;;;2.75;;
35959;SDS011;22043;50.970;7.192;2024-03-23T05:40:55;11.35;;;3.17;;
35959;SDS011;22043;50.970;7.192;2024-03-23T05:43:21;10.07;;;4.00;;
35959;SDS011;22043;50.970;7.192;2024-03-23T05:45:56;11.88;;;3.15;;
35959;SDS011;22043;50.970;7.192;2024-03-23T05:48:22;10.57;;;2.60;;
35959;SDS011;22043;50.970;7.192;2024-03-23T05:50:48;10.95;;;3.63;;
35959;SDS011;22043;50.970;7.192;2024-03-23T05:53:14;10.18;;;2.45;;
35959;SDS011;22043;50.970;7.192;2024-03-23T05:55:40;10.27;;;2.58;;
35959;SDS011;22043;50.970;7.192;2024-03-23T05:58:06;8.20;;;2.60;;
35959;SDS011;22043;50.970;7.192;2024-03-23T06:00:31;10.60;;;3.00;;
35959;SDS011;22043;50.970;7.192;2024-03-23T06:02:57;10.90;;;2.80;;
35959;SDS011;22043;50.970;7.192;2024-03-23T06:05:22;7.70;;;3.20;;
35959;SDS011;22043;50.970;7.192;2024-03-23T06:07:48;11.73;;;2.42;;
35959;SDS011;22043;50.970;7.192;2024-03-23T06:10:15;12.05;;;2.45;;
35959;SDS011;22043;50.970;7.192;2024-03-23T06:12:40;17.98;;;2.75;;
35959;SDS011;22043;50.970;7.192;2024-03-23T06:15:06;11.07;;;2.15;;
35959;SDS011;22043;50.970;7.192;2024-03-23T06:17:35;9.40;;;1.88;;
35959;SDS011;22043;50.970;7.192;2024-03-23T06:20:04;7.53;;;2.55;;
35959;SDS011;22043;50.970;7.192;2024-03-23T06:22:31;6.67;;;1.80;;
35959;SDS011;22043;50.970;7.192;2024-03-23T06:24:57;12.98;;;2.58;;
35959;SDS011;22043;50.970;7.192;2024-03-23T06:27:23;9.70;;;2.53;;
35959;SDS011;22043;50.970;7.192;2024-03-23T06:29:48;9.52;;;2.05;;
35959;SDS011;22043;50.970;7.192;2024-03-23T06:32:13;8.98;;;1.80;;
35959;SDS011;22043;50.970;7.192;2024-03-23T06:34:42;21.27;;;2.97;;
35959;SDS011;22043;50.970;7.192;2024-03-23T06:37:11;6.75;;;2.13;;
35959;SDS011;22043;50.970;7.192;2024-03-23T06:39:37;9.50;;;1.83;;
35959;SDS011;22043;50.970;7.192;2024-03-23T06:42:02;8.27;;;2.33;;
35959;SDS011;22043;50.970;7.192;2024-03-23T06:44:28;9.98;;;1.60;;
35959;SDS011;22043;50.970;7.192;2024-03-23T06:46:54;5.25;;;1.33;;
35959;SDS011;22043;50.970;7.192;2024-03-23T06:49:19;7.20;;;2.47;;
35959;SDS011;22043;50.970;7.192;2024-03-23T06:51:45;9.13;;;2.10;;
35959;SDS011;22043;50.970;7.192;2024-03-23T06:54:11;13.05;;;2.78;;
35959;SDS011;22043;50.970;7.192;2024-03-23T06:56:36;8.63;;;2.50;;
35959;SDS011;22043;50.970;7.192;2024-03-23T06:59:01;9.27;;;2.10;;
35959;SDS011;22043;50.970;7.192;2024-03-23T07:01:27;8.07;;;1.65;;
35959;SDS011;22043;50.970;7.192;2024-03-23T07:03:54;7.68;;;2.40;;
35959;SDS011;22043;50.970;7.192;2024-03-23T07:06:19;11.20;;;3.22;;
35959;SDS011;22043;50.970;7.192;2024-03-23T07:08:45;11.52;;;3.15;;
35959;SDS011;22043;50.970;7.192;2024-03-23T07:11:10;11.35;;;1.75;;
35959;SDS011;22043;50.970;7.192;2024-03-23T07:13:36;20.77;;;2.80;;
35959;SDS011;22043;50.970;7.192;2024-03-23T07:16:01;8.50;;;2.00;;
35959;SDS011;22043;50.970;7.192;2024-03-23T07:18:27;16.25;;;3.40;;
35959;SDS011;22043;50.970;7.192;2024-03-23T07:20:55;12.95;;;2.83;;
35959;SDS011;22043;50.970;7.192;2024-03-23T07:23:24;8.45;;;2.40;;
35959;SDS011;22043;50.970;7.192;2024-03-23T07:25:56;14.68;;;2.75;;
35959;SDS011;22043;50.970;7.192;2024-03-23T07:28:32;13.85;;;4.05;;
35959;SDS011;22043;50.970;7.192;2024-03-23T07:31:06;8.25;;;2.35;;
35959;SDS011;22043;50.970;7.192;2024-03-23T07:33:34;12.57;;;3.00;;
35959;SDS011;22043;50.970;7.192;2024-03-23T07:36:00;10.52;;;3.28;;
35959;SDS011;22043;50.970;7.192;2024-03-23T07:38:26;10.32;;;2.80;;
35959;SDS011;22043;50.970;7.192;2024-03-23T07:40:52;13.50;;;2.25;;
35959;SDS011;22043;50.970;7.192;2024-03-23T07:43:24;11.73;;;2.60;;
35959;SDS011;22043;50.970;7.192;2024-03-23T07:45:52;10.95;;;2.78;;
35959;SDS011;22043;50.970;7.192;2024-03-23T07:48:18;13.07;;;3.13;;
35959;SDS011;22043;50.970;7.192;2024-03-23T07:50:43;9.50;;;3.25;;
35959;SDS011;22043;50.970;7.192;2024-03-23T07:53:09;12.15;;;2.95;;
35959;SDS011;22043;50.970;7.192;2024-03-23T07:55:34;19.48;;;3.70;;
35959;SDS011;22043;50.970;7.192;2024-03-23T07:57:59;13.57;;;4.00;;
35959;SDS011;22043;50.970;7.192;2024-03-23T08:00:25;16.25;;;4.57;;
35959;SDS011;22043;50.970;7.192;2024-03-23T08:02:53;15.95;;;3.50;;
35959;SDS011;22043;50.970;7.192;2024-03-23T08:05:18;12.45;;;3.47;;
35959;SDS011;22043;50.970;7.192;2024-03-23T08:07:44;12.35;;;3.92;;
35959;SDS011;22043;50.970;7.192;2024-03-23T08:10:09;11.10;;;4.28;;
35959;SDS011;22043;50.970;7.192;2024-03-23T08:12:35;12.70;;;3.40;;
35959;SDS011;22043;50.970;7.192;2024-03-23T08:15:01;11.93;;;3.90;;
35959;SDS011;22043;50.970;7.192;2024-03-23T08:17:26;15.77;;;4.68;;
35959;SDS011;22043;50.970;7.192;2024-03-23T08:19:51;12.57;;;3.20;;
35959;SDS011;22043;50.970;7.192;2024-03-23T08:22:17;12.30;;;4.18;;
35959;SDS011;22043;50.970;7.192;2024-03-23T08:24:43;13.68;;;4.97;;
35959;SDS011;22043;50.970;7.192;2024-03-23T08:27:08;15.68;;;5.05;;
35959;SDS011;22043;50.970;7.192;2024-03-23T08:29:34;9.90;;;4.28;;
35959;SDS011;22043;50.970;7.192;2024-03-23T08:31:59;7.63;;;3.80;;
35959;SDS011;22043;50.970;7.192;2024-03-23T08:34:26;14.98;;;4.25;;
35959;SDS011;22043;50.970;7.192;2024-03-23T08:36:51;10.93;;;4.00;;
35959;SDS011;22043;50.970;7.192;2024-03-23T08:39:17;11.70;;;3.83;;
35959;SDS011;22043;50.970;7.192;2024-03-23T08:41:42;11.73;;;3.53;;
35959;SDS011;22043;50.970;7.192;2024-03-23T08:44:11;14.52;;;4.18;;
35959;SDS011;22043;50.970;7.192;2024-03-23T08:46:36;11.02;;;3.60;;
35959;SDS011;22043;50.970;7.192;2024-03-23T08:49:01;17.30;;;4.65;;
35959;SDS011;22043;50.970;7.192;2024-03-23T08:51:27;13.45;;;4.10;;
35959;SDS011;22043;50.970;7.192;2024-03-23T08:53:52;9.95;;;3.38;;
35959;SDS011;22043;50.970;7.192;2024-03-23T08:56:18;11.80;;;3.17;;
35959;SDS011;22043;50.970;7.192;2024-03-23T08:58:44;23.27;;;3.80;;
35959;SDS011;22043;50.970;7.192;2024-03-23T09:01:11;7.70;;;2.50;;
35959;SDS011;22043;50.970;7.192;2024-03-23T09:03:40;12.82;;;2.42;;
35959;SDS011;22043;50.970;7.192;2024-03-23T09:08:34;11.55;;;2.35;;
35959;SDS011;22043;50.970;7.192;2024-03-23T09:11:05;10.73;;;2.25;;
35959;SDS011;22043;50.970;7.192;2024-03-23T09:13:33;7.35;;;2.33;;
35959;SDS011;22043;50.970;7.192;2024-03-23T09:15:59;11.15;;;2.63;;
35959;SDS011;22043;50.970;7.192;2024-03-23T09:18:25;12.73;;;3.42;;
35959;SDS011;22043;50.970;7.192;2024-03-23T09:20:50;11.25;;;2.80;;
35959;SDS011;22043;50.970;7.192;2024-03-23T09:23:16;12.95;;;3.15;;
35959;SDS011;22043;50.970;7.192;2024-03-23T09:25:41;11.25;;;3.30;;
35959;SDS011;22043;50.970;7.192;2024-03-23T09:28:07;12.32;;;2.88;;
35959;SDS011;22043;50.970;7.192;2024-03-23T09:30:35;14.02;;;2.60;;
35959;SDS011;22043;50.970;7.192;2024-03-23T09:33:07;8.95;;;2.70;;
35959;SDS011;22043;50.970;7.192;2024-03-23T09:35:32;11.35;;;2.90;;
35959;SDS011;22043;50.970;7.192;2024-03-23T09:38:01;6.80;;;2.40;;
35959;SDS011;22043;50.970;7.192;2024-03-23T09:40:27;10.40;;;2.63;;
35959;SDS011;22043;50.970;7.192;2024-03-23T09:42:52;11.02;;;2.78;;
35959;SDS011;22043;50.970;7.192;2024-03-23T09:45:26;14.32;;;3.08;;
35959;SDS011;22043;50.970;7.192;2024-03-23T09:47:52;9.98;;;2.85;;
35959;SDS011;22043;50.970;7.192;2024-03-23T09:50:18;9.68;;;2.60;;
35959;SDS011;22043;50.970;7.192;2024-03-23T09:52:45;5.15;;;2.10;;
35959;SDS011;22043;50.970;7.192;2024-03-23T09:55:11;13.27;;;2.85;;
35959;SDS011;22043;50.970;7.192;2024-03-23T09:57:37;9.23;;;3.05;;
35959;SDS011;22043;50.970;7.192;2024-03-23T10:00:02;8.57;;;1.90;;
35959;SDS011;22043;50.970;7.192;2024-03-23T10:02:32;7.13;;;1.75;;
35959;SDS011;22043;50.970;7.192;2024-03-23T10:04:59;8.15;;;1.77;;
35959;SDS011;22043;50.970;7.192;2024-03-23T10:07:25;7.43;;;1.80;;
35959;SDS011;22043;50.970;7.192;2024-03-23T10:09:50;8.45;;;2.00;;
35959;SDS011;22043;50.970;7.192;2024-03-23T10:12:17;9.18;;;1.73;;
35959;SDS011;22043;50.970;7.192;2024-03-23T10:14:43;5.03;;;1.27;;
35959;SDS011;22043;50.970;7.192;2024-03-23T10:17:16;4.88;;;2.03;;
35959;SDS011;22043;50.970;7.192;2024-03-23T10:19:48;11.35;;;1.95;;
35959;SDS011;22043;50.970;7.192;2024-03-23T10:22:17;6.32;;;1.67;;
35959;SDS011;22043;50.970;7.192;2024-03-23T10:24:43;8.40;;;1.40;;
35959;SDS011;22043;50.970;7.192;2024-03-23T10:27:08;8.38;;;1.90;;
35959;SDS011;22043;50.970;7.192;2024-03-23T10:29:34;7.57;;;2.25;;
35959;SDS011;22043;50.970;7.192;2024-03-23T10:32:12;4.82;;;1.17;;
35959;SDS011;22043;50.970;7.192;2024-03-23T10:34:38;12.10;;;1.58;;
35959;SDS011;22043;50.970;7.192;2024-03-23T10:37:05;6.60;;;1.65;;
35959;SDS011;22043;50.970;7.192;2024-03-23T10:42:01;6.95;;;1.05;;
35959;SDS011;22043;50.970;7.192;2024-03-23T10:44:28;3.65;;;1.23;;
35959;SDS011;22043;50.970;7.192;2024-03-23T10:46:56;5.70;;;1.02;;
35959;SDS011;22043;50.970;7.192;2024-03-23T10:49:34;2.78;;;0.70;;
35959;SDS011;22043;50.970;7.192;2024-03-23T10:52:03;4.70;;;0.70;;
35959;SDS011;22043;50.970;7.192;2024-03-23T10:54:30;2.72;;;1.15;;
35959;SDS011;22043;50.970;7.192;2024-03-23T10:56:58;7.55;;;1.20;;
35959;SDS011;22043;50.970;7.192;2024-03-23T10:59:27;6.93;;;1.38;;
35959;SDS011;22043;50.970;7.192;2024-03-23T11:01:56;5.60;;;0.90;;
35959;SDS011;22043;50.970;7.192;2024-03-23T11:04:38;3.65;;;0.95;;
35959;SDS011;22043;50.970;7.192;2024-03-23T11:07:28;5.60;;;0.98;;
35959;SDS011;22043;50.970;7.192;2024-03-23T11:09:52;5.82;;;0.95;;
35959;SDS011;22043;50.970;7.192;2024-03-23T11:14:47;5.68;;;0.73;;
35959;SDS011;22043;50.970;7.192;2024-03-23T11:17:17;5.63;;;0.50;;
35959;SDS011;22043;50.970;7.192;2024-03-23T11:19:43;3.72;;;0.80;;
35959;SDS011;22043;50.970;7.192;2024-03-23T11:22:09;2.83;;;0.95;;
35959;SDS011;22043;50.970;7.192;2024-03-23T11:24:34;4.25;;;0.70;;
35959;SDS011;22043;50.970;7.192;2024-03-23T11:27:00;3.47;;;0.70;;
35959;SDS011;22043;50.970;7.192;2024-03-23T11:29:29;6.35;;;0.88;;
35959;SDS011;22043;50.970;7.192;2024-03-23T11:31:55;4.22;;;0.85;;
35959;SDS011;22043;50.970;7.192;2024-03-23T11:34:21;2.45;;;0.77;;
35959;SDS011;22043;50.970;7.192;2024-03-23T11:36:47;4.32;;;1.30;;
35959;SDS011;22043;50.970;7.192;2024-03-23T11:39:16;6.53;;;0.98;;
35959;SDS011;22043;50.970;7.192;2024-03-23T11:44:16;3.97;;;1.25;;
35959;SDS011;22043;50.970;7.192;2024-03-23T11:46:42;10.30;;;1.00;;
35959;SDS011;22043;50.970;7.192;2024-03-23T11:49:19;2.70;;;1.02;;
35959;SDS011;22043;50.970;7.192;2024-03-23T11:51:47;3.15;;;1.17;;
35959;SDS011;22043;50.970;7.192;2024-03-23T11:54:13;3.00;;;0.80;;
35959;SDS011;22043;50.970;7.192;2024-03-23T11:56:38;2.92;;;0.80;;
35959;SDS011;22043;50.970;7.192;2024-03-23T11:59:04;5.45;;;0.80;;
35959;SDS011;22043;50.970;7.192;2024-03-23T12:01:29;1.10;;;0.70;;
35959;SDS011;22043;50.970;7.192;2024-03-23T12:03:54;1.73;;;0.80;;
35959;SDS011;22043;50.970;7.192;2024-03-23T12:06:20;3.13;;;1.10;;
35959;SDS011;22043;50.970;7.192;2024-03-23T12:08:45;4.55;;;1.10;;
35959;SDS011;22043;50.970;7.192;2024-03-23T12:11:15;9.07;;;1.60;;
35959;SDS011;22043;50.970;7.192;2024-03-23T12:13:41;3.15;;;0.77;;
35959;SDS011;22043;50.970;7.192;2024-03-23T12:18:47;3.15;;;0.60;;
35959;SDS011;22043;50.970;7.192;2024-03-23T12:21:16;4.05;;;0.65;;
35959;SDS011;22043;50.970;7.192;2024-03-23T12:23:42;4.72;;;0.80;;
35959;SDS011;22043;50.970;7.192;2024-03-23T12:26:12;3.63;;;1.27;;
35959;SDS011;22043;50.970;7.192;2024-03-23T12:28:38;4.88;;;0.90;;
35959;SDS011;22043;50.970;7.192;2024-03-23T12:31:04;5.15;;;1.17;;
35959;SDS011;22043;50.970;7.192;2024-03-23T12:33:29;5.78;;;1.13;;
35959;SDS011;22043;50.970;7.192;2024-03-23T12:35:57;4.55;;;1.55;;
35959;SDS011;22043;50.970;7.192;2024-03-23T12:38:23;6.05;;;1.30;;
35959;SDS011;22043;50.970;7.192;2024-03-23T12:40:48;4.60;;;1.55;;
35959;SDS011;22043;50.970;7.192;2024-03-23T12:43:14;3.90;;;1.05;;
35959;SDS011;22043;50.970;7.192;2024-03-23T12:45:40;5.50;;;1.55;;
35959;SDS011;22043;50.970;7.192;2024-03-23T12:48:06;7.78;;;1.55;;
35959;SDS011;22043;50.970;7.192;2024-03-23T12:50:31;3.28;;;1.40;;
35959;SDS011;22043;50.970;7.192;2024-03-23T12:52:57;22.73;;;2.40;;
35959;SDS011;22043;50.970;7.192;2024-03-23T12:55:22;3.65;;;1.13;;
35959;SDS011;22043;50.970;7.192;2024-03-23T12:57:48;5.03;;;0.93;;
35959;SDS011;22043;50.970;7.192;2024-03-23T13:00:13;2.42;;;0.55;;
35959;SDS011;22043;50.970;7.192;2024-03-23T13:02:40;2.00;;;0.57;;
35959;SDS011;22043;50.970;7.192;2024-03-23T13:05:06;2.10;;;0.60;;
35959;SDS011;22043;50.970;7.192;2024-03-23T13:07:33;1.52;;;0.65;;
35959;SDS011;22043;50.970;7.192;2024-03-23T13:10:00;1.42;;;0.60;;
35959;SDS011;22043;50.970;7.192;2024-03-23T13:12:26;1.92;;;0.40;;
35959;SDS011;22043;50.970;7.192;2024-03-23T13:14:51;1.80;;;0.80;;
35959;SDS011;22043;50.970;7.192;2024-03-23T13:17:16;2.15;;;0.73;;
35959;SDS011;22043;50.970;7.192;2024-03-23T13:19:42;1.33;;;0.30;;
35959;SDS011;22043;50.970;7.192;2024-03-23T13:22:07;3.53;;;0.40;;
35959;SDS011;22043;50.970;7.192;2024-03-23T13:24:36;2.05;;;0.50;;
35959;SDS011;22043;50.970;7.192;2024-03-23T13:27:01;1.77;;;0.52;;
35959;SDS011;22043;50.970;7.192;2024-03-23T13:29:27;3.05;;;0.50;;
35959;SDS011;22043;50.970;7.192;2024-03-23T13:31:52;1.73;;;0.65;;
35959;SDS011;22043;50.970;7.192;2024-03-23T13:34:18;70.15;;;5.80;;
35959;SDS011;22043;50.970;7.192;2024-03-23T13:36:45;1.17;;;0.50;;
35959;SDS011;22043;50.970;7.192;2024-03-23T13:39:10;2.05;;;0.60;;
35959;SDS011;22043;50.970;7.192;2024-03-23T13:41:39;2.42;;;0.50;;
35959;SDS011;22043;50.970;7.192;2024-03-23T13:44:06;2.47;;;0.70;;
35959;SDS011;22043;50.970;7.192;2024-03-23T13:46:32;3.80;;;0.90;;
35959;SDS011;22043;50.970;7.192;2024-03-23T13:48:57;2.97;;;0.60;;
35959;SDS011;22043;50.970;7.192;2024-03-23T13:51:23;2.97;;;1.10;;
35959;SDS011;22043;50.970;7.192;2024-03-23T13:53:50;1.73;;;0.80;;
35959;SDS011;22043;50.970;7.192;2024-03-23T13:56:16;3.15;;;0.90;;
35959;SDS011;22043;50.970;7.192;2024-03-23T13:58:41;3.95;;;1.13;;
35959;SDS011;22043;50.970;7.192;2024-03-23T14:01:10;3.00;;;1.13;;
35959;SDS011;22043;50.970;7.192;2024-03-23T14:03:36;4.85;;;1.10;;
35959;SDS011;22043;50.970;7.192;2024-03-23T14:06:01;3.65;;;1.25;;
35959;SDS011;22043;50.970;7.192;2024-03-23T14:08:28;5.80;;;1.60;;
35959;SDS011;22043;50.970;7.192;2024-03-23T14:10:53;5.68;;;1.25;;
35959;SDS011;22043;50.970;7.192;2024-03-23T14:13:19;6.57;;;1.42;;
35959;SDS011;22043;50.970;7.192;2024-03-23T14:15:45;2.30;;;0.98;;
35959;SDS011;22043;50.970;7.192;2024-03-23T14:18:10;3.05;;;1.10;;
35959;SDS011;22043;50.970;7.192;2024-03-23T14:20:36;6.38;;;1.15;;
35959;SDS011;22043;50.970;7.192;2024-03-23T14:23:01;3.10;;;1.10;;
35959;SDS011;22043;50.970;7.192;2024-03-23T14:25:26;3.65;;;0.70;;
35959;SDS011;22043;50.970;7.192;2024-03-23T14:27:54;2.20;;;0.60;;
35959;SDS011;22043;50.970;7.192;2024-03-23T14:30:20;2.63;;;0.50;;
35959;SDS011;22043;50.970;7.192;2024-03-23T14:32:45;4.32;;;0.45;;
35959;SDS011;22043;50.970;7.192;2024-03-23T14:35:11;1.25;;;0.70;;
35959;SDS011;22043;50.970;7.192;2024-03-23T14:37:37;0.82;;;0.40;;
35959;SDS011;22043;50.970;7.192;2024-03-23T14:40:03;1.45;;;0.50;;
35959;SDS011;22043;50.970;7.192;2024-03-23T14:42:29;1.67;;;0.60;;
35959;SDS011;22043;50.970;7.192;2024-03-23T14:44:55;1.77;;;0.52;;
35959;SDS011;22043;50.970;7.192;2024-03-23T14:47:20;4.65;;;0.90;;
35959;SDS011;22043;50.970;7.192;2024-03-23T14:49:46;2.15;;;0.70;;
35959;SDS011;22043;50.970;7.192;2024-03-23T14:52:15;1.48;;;0.70;;
35959;SDS011;22043;50.970;7.192;2024-03-23T14:54:40;3.42;;;0.47;;
35959;SDS011;22043;50.970;7.192;2024-03-23T14:57:06;2.85;;;0.80;;
35959;SDS011;22043;50.970;7.192;2024-03-23T14:59:34;3.45;;;0.60;;
35959;SDS011;22043;50.970;7.192;2024-03-23T15:02:00;1.77;;;0.65;;
35959;SDS011;22043;50.970;7.192;2024-03-23T15:04:25;2.67;;;0.63;;
35959;SDS011;22043;50.970;7.192;2024-03-23T15:06:50;2.92;;;0.80;;
35959;SDS011;22043;50.970;7.192;2024-03-23T15:09:16;3.53;;;0.88;;
35959;SDS011;22043;50.970;7.192;2024-03-23T15:11:42;7.22;;;0.63;;
35959;SDS011;22043;50.970;7.192;2024-03-23T15:14:07;5.05;;;0.60;;
35959;SDS011;22043;50.970;7.192;2024-03-23T15:16:33;4.05;;;1.15;;
35959;SDS011;22043;50.970;7.192;2024-03-23T15:18:58;1.58;;;0.40;;
35959;SDS011;22043;50.970;7.192;2024-03-23T15:21:24;3.75;;;0.63;;
35959;SDS011;22043;50.970;7.192;2024-03-23T15:23:49;2.75;;;0.75;;
35959;SDS011;22043;50.970;7.192;2024-03-23T15:26:15;1.65;;;0.60;;
35959;SDS011;22043;50.970;7.192;2024-03-23T15:28:41;1.42;;;0.60;;
35959;SDS011;22043;50.970;7.192;2024-03-23T15:31:18;3.78;;;1.13;;
35959;SDS011;22043;50.970;7.192;2024-03-23T15:33:43;2.25;;;0.63;;
35959;SDS011;22043;50.970;7.192;2024-03-23T15:36:09;1.55;;;0.40;;
35959;SDS011;22043;50.970;7.192;2024-03-23T15:38:34;1.02;;;0.35;;
35959;SDS011;22043;50.970;7.192;2024-03-23T15:41:00;1.02;;;0.50;;
35959;SDS011;22043;50.970;7.192;2024-03-23T15:43:26;1.35;;;0.40;;